createdAt,value
2023-03-13T00:02:21.254Z,7.70
2023-03-13T00:04:53.454Z,7.50
2023-03-13T00:07:34.298Z,7.70
2023-03-13T00:10:18.266Z,8.80
2023-03-13T00:12:45.288Z,9.20
2023-03-13T00:15:17.548Z,8.50
2023-03-13T00:17:50.581Z,7.90
2023-03-13T00:20:19.197Z,8.80
2023-03-13T00:22:52.690Z,10.70
2023-03-13T00:25:20.767Z,10.50
2023-03-13T00:27:50.240Z,13.00
2023-03-13T00:30:22.536Z,8.60
2023-03-13T00:32:56.067Z,9.40
2023-03-13T00:35:28.676Z,8.30
2023-03-13T00:37:55.772Z,6.30
2023-03-13T00:40:27.488Z,6.70
2023-03-13T00:42:54.586Z,5.20
2023-03-13T00:45:21.546Z,4.20
2023-03-13T00:47:53.916Z,4.00
2023-03-13T00:50:21.274Z,3.90
2023-03-13T00:52:48.327Z,3.20
2023-03-13T00:55:15.584Z,3.20
2023-03-13T00:57:43.294Z,3.00
2023-03-13T01:00:15.619Z,3.90
2023-03-13T01:02:49.979Z,3.70
2023-03-13T01:05:17.902Z,3.30
2023-03-13T01:07:44.916Z,3.40
2023-03-13T01:10:16.931Z,4.10
2023-03-13T01:12:49.384Z,4.80
2023-03-13T01:15:19.202Z,6.10
2023-03-13T01:17:49.298Z,11.30
2023-03-13T01:20:16.830Z,11.10
2023-03-13T01:22:43.882Z,10.90
2023-03-13T01:25:16.686Z,9.30
2023-03-13T01:27:43.653Z,9.70
2023-03-13T01:30:11.838Z,11.60
2023-03-13T01:32:40.189Z,12.30
2023-03-13T01:35:09.295Z,13.80
2023-03-13T01:37:38.313Z,19.90
2023-03-13T01:40:06.163Z,19.60
2023-03-13T01:42:50.819Z,11.60
2023-03-13T01:45:49.446Z,9.70
2023-03-13T01:48:19.143Z,6.80
2023-03-13T01:50:49.132Z,6.60
2023-03-13T01:53:30.149Z,7.10
2023-03-13T01:56:05.182Z,8.90
2023-03-13T01:58:32.598Z,9.00
2023-03-13T02:01:00.145Z,10.20
2023-03-13T02:03:39.290Z,10.40
2023-03-13T02:06:07.458Z,10.40
2023-03-13T02:08:42.250Z,10.30
2023-03-13T02:11:18.762Z,10.50
2023-03-13T02:13:48.698Z,10.30
2023-03-13T02:16:15.950Z,11.70
2023-03-13T02:18:54.094Z,9.50
2023-03-13T02:21:55.381Z,11.60
2023-03-13T02:24:34.946Z,10.50
2023-03-13T02:27:02.534Z,10.50
2023-03-13T02:29:34.063Z,9.40
2023-03-13T02:32:01.590Z,8.40
2023-03-13T02:34:34.021Z,8.20
2023-03-13T02:37:02.055Z,7.90
2023-03-13T02:39:29.903Z,6.50
2023-03-13T02:41:57.870Z,6.60
2023-03-13T02:44:30.551Z,6.50
2023-03-13T02:46:58.288Z,5.50
2023-03-13T02:49:29.721Z,5.40
2023-03-13T02:52:05.542Z,5.40
